Time;durP1;ratioP1;P1;durP2;ratioP2;P2;SDS_P1;SDS_P2;PMS_P1;PMS_P2;Temp;Humidity;BMP_temperature;BMP_pressure;BME280_temperature;BME280_humidity;BME280_pressure;Samples;Min_cycle;Max_cycle;Signal;HPM_P1;HPM_P2
2023/02/12 05:31:06;;;;;;;29.92;16.95;;;5.60;83.80;;;;;;5612925;23;20047;-78
2023/02/12 05:33:32;;;;;;;31.70;14.48;;;5.70;83.80;;;;;;4925273;29;20068;-77
2023/02/12 05:36:10;;;;;;;27.13;15.45;;;5.70;83.80;;;;;;4920858;29;20032;-77
2023/02/12 05:38:36;;;;;;;29.73;17.05;;;5.60;83.70;;;;;;4937953;29;20035;-77
2023/02/12 05:41:10;;;;;;;36.85;17.33;;;5.60;83.90;;;;;;4936797;29;20050;-78
2023/02/12 05:43:36;;;;;;;36.10;18.08;;;5.60;83.80;;;;;;4914416;29;20413;-77
2023/02/12 05:46:04;;;;;;;29.48;15.27;;;5.60;83.80;;;;;;4900008;29;20036;-77
2023/02/12 05:48:30;;;;;;;35.67;20.25;;;5.70;83.70;;;;;;4900187;29;20035;-77
2023/02/12 05:51:11;;;;;;;33.15;19.45;;;5.60;83.30;;;;;;4900507;29;20032;-78
2023/02/12 05:53:38;;;;;;;25.05;14.02;;;5.60;83.40;;;;;;4898991;29;20056;-77
2023/02/12 05:56:07;;;;;;;28.08;14.88;;;5.70;83.40;;;;;;4914285;29;20056;-77
2023/02/12 05:58:32;;;;;;;23.10;14.15;;;5.70;83.30;;;;;;4918939;29;20024;-77
2023/02/12 06:00:58;;;;;;;28.77;14.63;;;5.70;82.90;;;;;;4910072;29;20048;-77
2023/02/12 06:03:24;;;;;;;26.75;15.02;;;5.70;82.90;;;;;;4917295;29;20035;-77
2023/02/12 06:05:50;;;;;;;26.15;14.35;;;5.70;83.00;;;;;;4931949;29;20031;-77
2023/02/12 06:08:16;;;;;;;25.10;11.90;;;5.70;82.80;;;;;;4919637;29;20036;-77
2023/02/12 06:10:42;;;;;;;21.23;12.23;;;5.70;82.80;;;;;;4921230;29;20036;-78
2023/02/12 06:13:07;;;;;;;25.58;14.55;;;5.70;82.40;;;;;;4937854;29;20027;-78
2023/02/12 06:15:35;;;;;;;26.73;12.18;;;5.60;82.60;;;;;;4929406;29;20032;-77
2023/02/12 06:18:01;;;;;;;30.77;15.50;;;5.70;82.60;;;;;;4918764;29;20036;-77
2023/02/12 06:20:27;;;;;;;20.65;11.43;;;5.50;82.90;;;;;;4929798;29;20104;-77
2023/02/12 06:22:52;;;;;;;25.77;12.82;;;5.50;83.00;;;;;;4921321;29;20020;-78
2023/02/12 06:25:18;;;;;;;29.27;15.30;;;5.50;83.10;;;;;;4922464;29;20445;-77
2023/02/12 06:27:43;;;;;;;26.63;15.45;;;5.40;83.10;;;;;;4915432;29;20024;-77
2023/02/12 06:30:10;;;;;;;29.48;14.07;;;5.50;83.20;;;;;;4903413;29;20040;-77
2023/02/12 06:32:35;;;;;;;24.27;13.48;;;5.50;82.90;;;;;;4917504;29;20024;-77
2023/02/12 06:35:01;;;;;;;29.35;14.13;;;5.60;82.70;;;;;;4916036;29;20043;-77
2023/02/12 06:37:26;;;;;;;29.33;13.45;;;5.70;82.40;;;;;;4933918;29;20020;-77
2023/02/12 06:39:52;;;;;;;29.70;14.13;;;5.70;82.00;;;;;;4935928;29;20567;-78
2023/02/12 06:42:18;;;;;;;25.50;12.52;;;5.70;81.90;;;;;;4921007;29;20055;-77
2023/02/12 06:44:45;;;;;;;17.83;12.05;;;5.70;81.90;;;;;;4920581;29;20044;-78
2023/02/12 06:47:11;;;;;;;20.20;10.55;;;5.70;81.70;;;;;;4922025;29;20031;-78
2023/02/12 06:49:36;;;;;;;27.50;12.88;;;5.60;81.60;;;;;;4917896;29;20107;-77
2023/02/12 06:52:02;;;;;;;20.05;11.63;;;5.60;81.80;;;;;;4921535;29;20509;-77
2023/02/12 06:54:28;;;;;;;18.55;10.63;;;5.60;81.70;;;;;;4921285;29;20023;-78
2023/02/12 06:56:53;;;;;;;20.23;11.98;;;5.70;81.40;;;;;;4918181;29;20052;-78
2023/02/12 06:59:19;;;;;;;23.67;11.68;;;5.70;81.40;;;;;;4921667;29;20040;-78
2023/02/12 07:01:45;;;;;;;27.60;12.35;;;5.70;81.10;;;;;;4934300;29;20039;-77
2023/02/12 07:04:11;;;;;;;21.45;11.65;;;5.60;81.20;;;;;;4937729;29;20036;-77
2023/02/12 07:06:37;;;;;;;19.65;9.45;;;5.60;81.10;;;;;;4920515;29;20114;-78
2023/02/12 07:09:06;;;;;;;21.25;11.43;;;5.60;81.00;;;;;;4919334;29;20071;-78
2023/02/12 07:11:34;;;;;;;22.95;11.50;;;5.60;81.00;;;;;;4932715;29;20070;-80
2023/02/12 07:13:59;;;;;;;23.65;12.27;;;5.70;80.90;;;;;;4940533;29;20031;-80
2023/02/12 07:16:26;;;;;;;20.98;10.52;;;5.70;80.70;;;;;;4926575;29;20031;-79
2023/02/12 07:18:51;;;;;;;20.45;10.50;;;5.70;80.40;;;;;;4920776;29;20047;-77
2023/02/12 07:21:18;;;;;;;22.05;11.98;;;5.70;80.40;;;;;;4917132;29;20028;-77
2023/02/12 07:23:48;;;;;;;21.08;10.15;;;5.70;80.20;;;;;;4909855;29;20070;-79
2023/02/12 07:26:15;;;;;;;20.08;10.32;;;5.70;80.20;;;;;;4913868;29;20125;-79
2023/02/12 07:28:42;;;;;;;21.08;11.07;;;5.70;80.10;;;;;;4912340;29;20060;-82
2023/02/12 07:31:21;;;;;;;19.77;11.55;;;5.70;80.00;;;;;;4911664;29;20412;-79
2023/02/12 07:33:48;;;;;;;21.15;12.40;;;5.70;79.90;;;;;;4913038;29;20429;-81
2023/02/12 07:36:16;;;;;;;19.30;11.23;;;5.70;79.70;;;;;;4906667;29;20504;-83
2023/02/12 07:38:42;;;;;;;21.70;11.68;;;5.70;79.60;;;;;;4909450;29;20113;-80
2023/02/12 07:41:19;;;;;;;23.60;11.55;;;5.70;79.60;;;;;;4921206;29;20024;-79
2023/02/12 07:43:47;;;;;;;20.80;11.30;;;5.60;79.40;;;;;;4920505;29;20576;-85
2023/02/12 07:46:19;;;;;;;28.98;13.90;;;5.70;79.50;;;;;;4916335;29;20040;-82
2023/02/12 07:48:46;;;;;;;23.75;14.38;;;5.70;79.50;;;;;;4902378;29;20041;-77
2023/02/12 07:51:14;;;;;;;24.02;14.00;;;5.70;79.40;;;;;;4901961;29;20029;-81
2023/02/12 07:53:39;;;;;;;23.83;12.25;;;5.70;79.20;;;;;;4901785;29;20032;-78
2023/02/12 07:56:15;;;;;;;18.38;10.93;;;5.70;79.20;;;;;;4915232;29;20040;-86
2023/02/12 07:58:43;;;;;;;22.70;11.05;;;5.80;79.40;;;;;;4907132;29;20032;-80
2023/02/12 08:01:23;;;;;;;24.45;12.85;;;5.90;79.30;;;;;;4917711;29;20431;-78
2023/02/12 08:03:50;;;;;;;18.10;9.95;;;5.90;79.20;;;;;;4907644;29;20038;-79
2023/02/12 08:06:28;;;;;;;24.05;11.45;;;6.00;79.20;;;;;;4909581;29;20103;-79
2023/02/12 08:08:56;;;;;;;15.43;10.00;;;6.00;79.10;;;;;;4915477;29;20028;-79
2023/02/12 08:11:23;;;;;;;23.35;10.02;;;6.00;79.00;;;;;;4928427;29;20034;-78
2023/02/12 08:13:49;;;;;;;14.45;8.40;;;6.00;79.00;;;;;;4915696;29;20021;-79
2023/02/12 08:16:17;;;;;;;13.88;8.27;;;6.10;79.00;;;;;;4913402;29;20172;-81
2023/02/12 08:18:43;;;;;;;13.82;9.00;;;6.00;78.90;;;;;;4910755;29;20397;-79
2023/02/12 08:21:12;;;;;;;14.27;8.18;;;6.10;79.60;;;;;;4913884;29;20172;-79
2023/02/12 08:23:38;;;;;;;14.68;8.15;;;6.10;79.20;;;;;;4904688;29;20084;-79
2023/02/12 08:26:30;;;;;;;20.35;9.85;;;6.10;79.50;;;;;;4916949;29;20044;-80
2023/02/12 08:29:13;;;;;;;10.75;7.53;;;6.20;79.40;;;;;;4902612;29;20119;-81
2023/02/12 08:31:41;;;;;;;13.98;8.48;;;6.30;79.10;;;;;;4913525;29;20052;-80
2023/02/12 08:34:19;;;;;;;15.75;9.20;;;6.30;78.30;;;;;;4917272;29;20123;-80
2023/02/12 08:36:45;;;;;;;14.88;8.23;;;6.40;79.10;;;;;;4905766;29;20060;-79
2023/02/12 08:39:12;;;;;;;12.32;8.25;;;6.60;78.60;;;;;;4916686;29;20090;-80
2023/02/12 08:41:38;;;;;;;14.73;8.73;;;6.60;78.20;;;;;;4911708;29;20032;-79
2023/02/12 08:44:05;;;;;;;14.48;9.07;;;6.50;77.80;;;;;;4909693;29;20150;-79
2023/02/12 08:46:33;;;;;;;23.80;12.68;;;6.40;78.80;;;;;;4905207;29;20134;-79
2023/02/12 08:49:01;;;;;;;13.70;9.40;;;6.40;78.80;;;;;;4913322;29;20076;-78
2023/02/12 08:51:30;;;;;;;21.65;12.32;;;6.30;78.70;;;;;;4910921;29;20040;-79
2023/02/12 08:53:58;;;;;;;16.63;9.82;;;6.20;79.20;;;;;;4908021;29;20027;-79
2023/02/12 08:56:25;;;;;;;11.02;7.78;;;6.20;79.80;;;;;;4915906;29;20114;-80
2023/02/12 08:58:50;;;;;;;21.90;12.23;;;6.30;79.30;;;;;;4908588;29;20425;-79
2023/02/12 09:01:22;;;;;;;16.73;10.77;;;6.20;79.50;;;;;;4911099;29;20119;-80
2023/02/12 09:03:48;;;;;;;17.27;10.52;;;6.20;79.70;;;;;;4909787;29;20445;-79
2023/02/12 09:06:15;;;;;;;23.92;14.73;;;6.20;80.00;;;;;;4907455;29;20036;-79
2023/02/12 09:08:41;;;;;;;16.52;8.95;;;6.20;79.50;;;;;;4906737;29;20148;-79
2023/02/12 09:11:11;;;;;;;21.67;11.48;;;6.30;79.40;;;;;;4912908;29;20032;-79
2023/02/12 09:13:37;;;;;;;18.50;9.68;;;6.40;79.30;;;;;;4911710;29;20024;-79
2023/02/12 09:16:03;;;;;;;20.65;12.35;;;6.40;79.00;;;;;;4907227;29;20127;-79
2023/02/12 09:18:30;;;;;;;21.83;11.75;;;6.40;79.10;;;;;;4907327;29;20033;-79
2023/02/12 09:21:03;;;;;;;16.42;10.00;;;6.40;79.00;;;;;;4897409;29;21707;-79
2023/02/12 09:23:29;;;;;;;21.92;11.63;;;6.30;79.20;;;;;;4909201;29;20035;-79
2023/02/12 09:25:55;;;;;;;24.88;14.15;;;6.30;79.30;;;;;;4911385;29;20045;-79
2023/02/12 09:28:21;;;;;;;18.70;11.23;;;6.20;79.80;;;;;;4914778;29;20035;-79
2023/02/12 09:30:47;;;;;;;21.85;14.25;;;6.20;79.90;;;;;;4913997;29;20060;-80
2023/02/12 09:33:13;;;;;;;20.33;11.52;;;6.20;80.10;;;;;;4915176;29;20024;-80
2023/02/12 09:35:39;;;;;;;16.08;9.80;;;6.20;80.00;;;;;;4909965;29;21722;-79
2023/02/12 09:38:05;;;;;;;19.48;12.65;;;6.20;79.90;;;;;;4906418;29;20024;-77
2023/02/12 09:40:37;;;;;;;20.70;10.30;;;6.10;80.00;;;;;;4910409;29;20042;-77
2023/02/12 09:43:11;;;;;;;16.08;8.73;;;6.10;80.20;;;;;;4908801;29;20148;-79
2023/02/12 09:45:48;;;;;;;16.65;10.43;;;6.20;80.70;;;;;;4909519;29;20039;-81
2023/02/12 09:48:25;;;;;;;19.83;11.07;;;6.20;80.50;;;;;;4912954;29;20048;-79
2023/02/12 09:50:55;;;;;;;22.05;11.20;;;6.30;80.00;;;;;;4913268;29;20176;-80
2023/02/12 09:53:28;;;;;;;18.02;11.05;;;6.30;80.20;;;;;;4915932;29;20056;-77
2023/02/12 09:55:54;;;;;;;23.38;12.63;;;6.30;79.90;;;;;;4914514;29;20040;-77
2023/02/12 09:58:34;;;;;;;19.98;11.05;;;6.40;80.20;;;;;;4914596;29;20028;-76
2023/02/12 10:01:00;;;;;;;;;;;6.50;80.10;;;;;;4908231;29;20032;-79
2023/02/12 10:03:29;;;;;;;14.88;7.88;;;6.50;79.70;;;;;;4916660;29;19907;-78
2023/02/12 10:06:04;;;;;;;22.10;12.32;;;6.40;79.60;;;;;;4914656;29;20062;-78
2023/02/12 10:09:00;;;;;;;20.50;11.82;;;6.40;79.80;;;;;;4915499;29;20111;-77
2023/02/12 10:11:35;;;;;;;22.77;12.48;;;6.40;80.00;;;;;;4918135;29;20032;-78
2023/02/12 10:14:22;;;;;;;22.88;11.70;;;6.50;79.50;;;;;;4914515;29;20031;-79
2023/02/12 10:17:20;;;;;;;19.35;11.38;;;6.70;79.90;;;;;;4914417;29;20508;-78
2023/02/12 10:20:20;;;;;;;18.83;10.02;;;6.70;79.30;;;;;;4912995;29;20048;-78
2023/02/12 10:22:48;;;;;;;21.60;12.25;;;6.90;79.00;;;;;;4912823;29;20031;-78
2023/02/12 10:25:17;;;;;;;18.58;7.47;;;7.00;79.00;;;;;;4915231;29;20040;-77
2023/02/12 10:27:48;;;;;;;22.38;14.60;;;7.10;78.80;;;;;;4912995;29;20036;-78
2023/02/12 10:30:38;;;;;;;19.92;12.50;;;7.10;78.10;;;;;;4914217;29;20024;-78
2023/02/12 10:33:11;;;;;;;;;;;6.90;78.10;;;;;;4915299;29;20503;-78
2023/02/12 10:35:43;;;;;;;14.98;9.50;;;7.10;78.40;;;;;;4914370;29;19914;-75
2023/02/12 10:38:34;;;;;;;16.88;11.07;;;7.20;78.40;;;;;;4909699;29;20028;-75
2023/02/12 10:41:00;;;;;;;16.58;10.32;;;7.20;78.20;;;;;;4915122;29;20039;-75
2023/02/12 10:43:27;;;;;;;22.02;11.43;;;7.30;78.00;;;;;;4909377;29;20025;-76
2023/02/12 10:45:53;;;;;;;21.20;10.10;;;7.40;78.00;;;;;;4916388;29;20036;-82
2023/02/12 10:48:28;;;;;;;24.98;14.38;;;7.40;78.30;;;;;;4909833;29;20024;-81
2023/02/12 10:51:06;;;;;;;16.80;10.55;;;7.50;77.70;;;;;;4911882;29;20066;-80
2023/02/12 10:53:43;;;;;;;19.27;11.57;;;7.50;77.40;;;;;;4918410;29;20060;-79
2023/02/12 10:56:18;;;;;;;19.90;11.82;;;7.50;77.40;;;;;;4915918;29;20490;-80
2023/02/12 10:58:51;;;;;;;18.65;12.23;;;7.50;77.60;;;;;;4912355;29;20028;-78
2023/02/12 11:01:24;;;;;;;23.65;14.43;;;7.60;77.40;;;;;;4915069;29;20036;-79
2023/02/12 11:03:51;;;;;;;23.58;13.95;;;7.60;77.30;;;;;;4915948;29;20042;-79
2023/02/12 11:06:20;;;;;;;19.98;13.23;;;7.80;76.80;;;;;;4920464;29;20034;-78
2023/02/12 11:08:46;;;;;;;17.55;11.25;;;7.90;76.10;;;;;;4916681;29;20056;-85
2023/02/12 11:11:30;;;;;;;15.63;9.60;;;7.90;75.70;;;;;;4918351;29;20056;-81
2023/02/12 11:14:19;;;;;;;16.20;8.95;;;8.00;76.10;;;;;;4926635;29;20033;-83
2023/02/12 11:17:01;;;;;;;20.10;11.02;;;8.10;76.70;;;;;;4903017;29;20021;-82
2023/02/12 11:19:29;;;;;;;19.98;9.85;;;8.30;76.20;;;;;;4914225;29;20051;-81
2023/02/12 11:22:17;;;;;;;16.52;9.30;;;8.30;75.90;;;;;;4918794;29;20036;-77
2023/02/12 11:24:46;;;;;;;18.70;12.98;;;8.20;76.00;;;;;;4915524;29;20059;-77
2023/02/12 11:27:17;;;;;;;23.58;12.88;;;8.00;75.30;;;;;;4918047;29;20033;-77
2023/02/12 11:29:47;;;;;;;21.02;12.60;;;8.00;75.80;;;;;;4908024;29;20021;-79
2023/02/12 11:32:17;;;;;;;20.00;11.50;;;8.10;75.80;;;;;;4914286;29;20036;-79
2023/02/12 11:34:43;;;;;;;17.60;10.15;;;8.30;75.60;;;;;;4919343;29;20039;-79
2023/02/12 11:37:17;;;;;;;18.08;10.57;;;8.50;74.80;;;;;;4920380;29;20028;-83
2023/02/12 11:39:47;;;;;;;14.63;7.70;;;8.60;75.00;;;;;;4920031;29;20028;-80
2023/02/12 11:42:24;;;;;;;16.70;9.07;;;8.60;74.70;;;;;;4916427;29;20067;-86
2023/02/12 11:44:56;;;;;;;17.48;8.48;;;8.60;74.10;;;;;;4918106;29;20067;-79
2023/02/12 11:47:34;;;;;;;20.00;11.20;;;8.70;74.60;;;;;;4912933;29;20078;-78
2023/02/12 11:50:31;;;;;;;22.42;13.02;;;8.70;74.70;;;;;;4910239;29;20051;-85
2023/02/12 11:53:00;;;;;;;17.23;11.20;;;8.40;74.10;;;;;;4905490;29;20123;-79
2023/02/12 11:55:30;;;;;;;14.63;8.53;;;8.30;74.80;;;;;;4912107;29;20028;-78
2023/02/12 11:58:03;;;;;;;21.23;11.38;;;8.30;74.80;;;;;;4922781;29;20032;-81
2023/02/12 12:00:40;;;;;;;23.50;12.60;;;8.10;75.10;;;;;;4915634;29;20127;-84
2023/02/12 12:03:09;;;;;;;20.98;12.32;;;8.00;75.20;;;;;;4919553;29;20036;-81
2023/02/12 12:05:40;;;;;;;19.65;10.30;;;8.20;75.50;;;;;;4920271;29;20602;-80
2023/02/12 12:08:17;;;;;;;14.50;8.07;;;8.20;75.60;;;;;;4919200;29;20480;-82
2023/02/12 12:11:09;;;;;;;17.92;9.75;;;8.30;75.20;;;;;;4924291;29;20028;-79
2023/02/12 12:13:40;;;;;;;20.17;12.32;;;8.30;75.20;;;;;;4937970;29;20031;-80
2023/02/12 12:22:03;;;;;;;;;;;8.20;75.80;;;;;;4920475;29;20095;-81
2023/02/12 12:24:42;;;;;;;19.48;12.23;;;8.30;75.00;;;;;;4920707;29;20363;-81
2023/02/12 12:30:23;;;;;;;15.85;9.68;;;8.50;75.50;;;;;;4911263;29;20091;-79
2023/02/12 12:32:53;;;;;;;19.40;10.63;;;8.60;74.70;;;;;;4920068;29;20028;-83
2023/02/12 12:35:27;;;;;;;15.18;9.07;;;8.60;74.60;;;;;;4918693;29;20060;-83
2023/02/12 12:38:01;;;;;;;17.05;10.45;;;8.60;74.50;;;;;;4908291;29;20028;-80
2023/02/12 12:40:41;;;;;;;13.35;9.07;;;8.70;74.80;;;;;;4901277;29;20025;-79
2023/02/12 12:43:13;;;;;;;22.70;12.40;;;8.80;74.70;;;;;;4909285;29;20028;-86
2023/02/12 12:45:59;;;;;;;15.75;9.38;;;8.70;74.60;;;;;;4914778;29;20399;-78
2023/02/12 12:48:49;;;;;;;22.27;12.35;;;8.70;74.30;;;;;;4916811;29;20036;-80
2023/02/12 12:51:38;;;;;;;21.77;10.30;;;8.70;74.10;;;;;;4915360;29;20024;-78
2023/02/12 12:54:21;;;;;;;20.20;11.05;;;8.90;74.10;;;;;;4916552;29;20028;-82
2023/02/12 12:56:59;;;;;;;16.95;9.77;;;8.90;73.80;;;;;;4911186;29;20031;-80
2023/02/12 12:59:33;;;;;;;16.65;9.00;;;9.00;74.00;;;;;;4919489;29;20079;-81
2023/02/12 13:02:27;;;;;;;16.67;8.85;;;9.10;73.40;;;;;;4911794;29;20119;-80
2023/02/12 13:04:59;;;;;;;18.35;7.93;;;9.20;73.70;;;;;;4911118;29;20125;-81
2023/02/12 13:07:47;;;;;;;17.13;8.57;;;9.30;73.00;;;;;;4921901;29;20032;-80
2023/02/12 13:10:47;;;;;;;17.48;9.00;;;9.30;73.50;;;;;;4924111;29;20020;-80
2023/02/12 13:13:27;;;;;;;12.85;7.65;;;9.40;72.80;;;;;;4925928;29;20571;-81
2023/02/12 13:16:05;;;;;;;12.95;7.03;;;9.40;72.40;;;;;;4925330;29;20560;-81
2023/02/12 13:18:45;;;;;;;14.68;7.60;;;9.50;73.10;;;;;;4925892;29;20494;-81
2023/02/12 13:21:11;;;;;;;;;;;9.50;72.20;;;;;;4924478;29;20488;-80
2023/02/12 13:23:55;;;;;;;17.33;8.75;;;9.60;73.00;;;;;;4927777;29;20010;-80
2023/02/12 13:26:57;;;;;;;19.23;10.00;;;9.70;72.60;;;;;;4924883;29;20031;-80
2023/02/12 13:29:34;;;;;;;15.05;8.30;;;9.80;72.40;;;;;;4921677;29;20039;-80
2023/02/12 13:32:35;;;;;;;16.02;8.85;;;9.80;71.90;;;;;;4899262;29;20048;-78
2023/02/12 13:35:03;;;;;;;15.10;7.78;;;9.80;71.00;;;;;;4906033;29;20033;-80
2023/02/12 13:37:29;;;;;;;12.23;6.85;;;9.70;70.00;;;;;;4909719;29;20547;-80
2023/02/12 13:40:01;;;;;;;17.08;10.02;;;9.70;70.90;;;;;;4901273;29;20044;-76
2023/02/12 13:42:45;;;;;;;14.48;7.68;;;9.80;71.10;;;;;;4908504;29;20091;-76
2023/02/12 13:45:33;;;;;;;14.90;8.50;;;9.80;70.80;;;;;;4917847;29;20064;-76
2023/02/12 13:48:19;;;;;;;15.98;9.30;;;9.90;70.60;;;;;;4910328;29;20033;-75
2023/02/12 13:50:44;;;;;;;18.65;9.82;;;9.90;69.60;;;;;;4916754;29;20381;-76
2023/02/12 13:53:28;;;;;;;14.48;8.55;;;9.90;69.60;;;;;;4919387;29;20036;-76
2023/02/12 13:56:16;;;;;;;11.23;6.88;;;9.90;70.20;;;;;;4918648;29;20032;-78
2023/02/12 13:58:54;;;;;;;16.67;7.68;;;10.00;70.50;;;;;;4918483;29;20052;-76
2023/02/12 14:01:41;;;;;;;13.60;8.07;;;10.00;70.60;;;;;;4915339;29;20025;-76
2023/02/12 14:04:29;;;;;;;16.55;9.30;;;10.10;70.40;;;;;;4907577;29;20060;-76
2023/02/12 14:07:02;;;;;;;12.48;6.80;;;10.00;69.90;;;;;;4899368;29;20459;-76
2023/02/12 14:09:36;;;;;;;13.15;7.82;;;10.00;69.70;;;;;;4915807;29;20740;-76
2023/02/12 14:12:05;;;;;;;11.50;6.63;;;10.10;69.30;;;;;;4927250;29;20026;-76
2023/02/12 14:14:41;;;;;;;13.43;7.78;;;10.10;69.50;;;;;;4918362;29;20044;-77
2023/02/12 14:17:28;;;;;;;12.15;6.85;;;10.10;68.90;;;;;;4911676;29;20020;-77
2023/02/12 14:19:54;;;;;;;11.20;6.30;;;10.10;69.00;;;;;;4917331;29;20043;-76
2023/02/12 14:22:26;;;;;;;13.05;7.32;;;10.20;69.10;;;;;;4917354;29;20032;-76
2023/02/12 14:24:54;;;;;;;13.00;6.82;;;10.20;69.00;;;;;;4917732;29;20119;-76
2023/02/12 14:27:25;;;;;;;12.50;7.47;;;10.30;68.90;;;;;;4915854;29;20025;-76
2023/02/12 14:30:00;;;;;;;10.38;5.75;;;10.20;68.40;;;;;;4910641;29;20556;-76
2023/02/12 14:32:45;;;;;;;13.35;8.55;;;10.20;67.30;;;;;;4910271;29;20135;-77
2023/02/12 14:35:26;;;;;;;10.02;6.95;;;10.30;67.40;;;;;;4910322;29;20028;-77
2023/02/12 14:37:58;;;;;;;18.60;9.35;;;10.30;67.50;;;;;;4901520;29;20028;-75
2023/02/12 14:40:39;;;;;;;12.43;6.68;;;10.30;67.00;;;;;;4904777;29;20111;-77
2023/02/12 14:43:59;;;;;;;14.27;8.18;;;10.40;67.10;;;;;;4899408;29;20033;-77
2023/02/12 14:46:21;;;;;;;13.73;7.13;;;10.40;67.50;;;;;;4903690;29;20417;-76
2023/02/12 14:49:03;;;;;;;11.98;6.13;;;10.50;67.80;;;;;;4912868;29;20036;-77
2023/02/12 14:51:54;;;;;;;11.95;7.22;;;10.50;68.10;;;;;;4914334;29;20099;-76
2023/02/12 14:54:46;;;;;;;10.90;6.20;;;10.50;67.90;;;;;;4920083;29;20043;-77
2023/02/12 14:57:26;;;;;;;9.35;5.82;;;10.40;68.10;;;;;;4920163;29;20056;-78
2023/02/12 14:59:57;;;;;;;12.02;6.65;;;10.50;68.20;;;;;;4920080;29;20500;-78
2023/02/12 15:02:25;;;;;;;12.30;6.57;;;10.60;67.40;;;;;;4918179;29;20036;-77
2023/02/12 15:04:53;;;;;;;12.07;7.40;;;10.70;67.20;;;;;;4921623;29;20094;-77
2023/02/12 15:07:42;;;;;;;13.73;7.63;;;10.70;66.90;;;;;;4920838;29;20480;-79
2023/02/12 15:10:20;;;;;;;12.90;5.88;;;10.60;67.50;;;;;;4921607;29;20024;-78
2023/02/12 15:13:06;;;;;;;10.75;6.22;;;10.60;68.30;;;;;;4923414;29;20381;-78
2023/02/12 15:15:49;;;;;;;8.50;5.65;;;10.60;68.40;;;;;;4907172;29;20060;-79
2023/02/12 15:18:26;;;;;;;8.77;5.95;;;10.60;67.50;;;;;;4920337;29;20489;-79
2023/02/12 15:21:00;;;;;;;8.35;5.75;;;10.60;66.90;;;;;;4913454;29;20056;-79
2023/02/12 15:23:35;;;;;;;10.68;5.88;;;10.70;67.20;;;;;;4921430;29;20508;-79
2023/02/12 15:26:04;;;;;;;9.15;5.50;;;10.70;66.90;;;;;;4920364;29;20035;-79
2023/02/12 15:28:33;;;;;;;10.02;5.75;;;10.70;67.40;;;;;;4908484;29;20044;-79
2023/02/12 15:31:01;;;;;;;9.05;5.15;;;10.70;67.40;;;;;;4902322;29;20055;-79
2023/02/12 15:33:32;;;;;;;9.05;6.78;;;10.70;66.50;;;;;;4901440;29;20033;-79
2023/02/12 15:36:00;;;;;;;9.57;6.53;;;10.70;65.90;;;;;;4908042;29;20064;-79
2023/02/12 15:38:56;;;;;;;9.70;5.85;;;10.70;66.00;;;;;;4921273;29;20032;-78
2023/02/12 15:41:28;;;;;;;10.10;6.15;;;10.70;66.50;;;;;;4918383;29;20043;-79
2023/02/12 15:43:54;;;;;;;10.30;6.72;;;10.80;66.60;;;;;;4911273;29;20621;-78
2023/02/12 15:46:20;;;;;;;10.07;6.60;;;10.70;66.40;;;;;;4902076;29;20132;-78
2023/02/12 15:48:46;;;;;;;9.23;5.65;;;10.80;66.00;;;;;;4906274;29;20080;-79
2023/02/12 15:51:34;;;;;;;8.43;5.68;;;10.80;66.40;;;;;;4919681;29;20039;-79
2023/02/12 15:54:03;;;;;;;9.45;5.78;;;10.80;66.30;;;;;;4903510;29;20040;-79
2023/02/12 15:56:32;;;;;;;12.30;6.32;;;10.80;66.70;;;;;;4918728;29;20028;-79
2023/02/12 15:59:00;;;;;;;12.57;7.32;;;10.80;66.50;;;;;;4911980;29;20043;-79
2023/02/12 16:01:34;;;;;;;10.10;5.85;;;10.80;66.10;;;;;;4922185;29;20028;-82
2023/02/12 16:04:05;;;;;;;8.32;5.65;;;10.80;66.50;;;;;;4909851;29;20043;-79
2023/02/12 16:06:34;;;;;;;10.27;6.13;;;10.80;66.20;;;;;;4919485;29;20059;-86
2023/02/12 16:09:08;;;;;;;11.80;6.28;;;10.70;66.20;;;;;;4918259;29;20051;-84
2023/02/12 16:11:36;;;;;;;10.02;6.53;;;10.70;66.60;;;;;;4927013;29;20048;-84
2023/02/12 16:14:04;;;;;;;10.25;7.30;;;10.60;66.50;;;;;;4915699;29;20489;-80
2023/02/12 16:16:44;;;;;;;10.00;6.53;;;10.60;66.70;;;;;;4913360;29;20043;-79
2023/02/12 16:19:22;;;;;;;13.57;7.47;;;10.60;66.70;;;;;;4911960;29;20020;-79
2023/02/12 16:22:04;;;;;;;9.57;6.50;;;10.60;66.50;;;;;;4900896;29;20066;-77
2023/02/12 16:24:38;;;;;;;10.80;6.72;;;10.50;66.70;;;;;;4915283;29;20032;-82
2023/02/12 16:27:15;;;;;;;9.07;7.18;;;10.50;66.70;;;;;;4911419;29;20036;-78
2023/02/12 16:29:50;;;;;;;10.70;6.15;;;10.50;66.90;;;;;;4920445;29;20115;-78
2023/02/12 16:32:44;;;;;;;11.05;7.53;;;10.50;66.90;;;;;;4920022;29;20412;-79
2023/02/12 16:35:09;;;;;;;9.73;7.55;;;10.50;66.70;;;;;;4915860;29;20040;-78
2023/02/12 16:37:35;;;;;;;12.32;7.85;;;10.50;66.80;;;;;;4911646;29;20032;-78
2023/02/12 16:40:13;;;;;;;10.95;6.75;;;10.40;66.50;;;;;;4901533;29;20489;-78
2023/02/12 16:42:55;;;;;;;13.90;7.68;;;10.30;66.80;;;;;;4899816;29;20064;-79
2023/02/12 16:45:25;;;;;;;10.98;7.20;;;10.30;66.40;;;;;;4901289;29;20449;-83
2023/02/12 16:47:52;;;;;;;13.32;8.15;;;10.30;66.50;;;;;;4905466;29;20032;-86
2023/02/12 16:50:21;;;;;;;13.27;8.43;;;10.20;66.70;;;;;;4903923;29;20028;-86
2023/02/12 16:52:47;;;;;;;13.23;8.35;;;10.20;66.90;;;;;;4929569;29;20039;-79
2023/02/12 16:55:15;;;;;;;18.27;8.60;;;10.20;67.20;;;;;;4918174;29;20020;-84
2023/02/12 16:57:40;;;;;;;11.55;7.97;;;10.10;67.20;;;;;;4913341;29;20115;-77
2023/02/12 17:00:07;;;;;;;14.20;8.80;;;10.10;67.30;;;;;;4915153;29;20568;-76
2023/02/12 17:02:35;;;;;;;14.85;9.43;;;10.00;67.40;;;;;;4906500;29;20033;-78
2023/02/12 17:05:04;;;;;;;15.10;9.43;;;9.90;67.60;;;;;;4917402;29;20024;-80
2023/02/12 17:07:30;;;;;;;15.05;9.27;;;10.00;67.90;;;;;;4912063;29;20032;-78
2023/02/12 17:09:56;;;;;;;14.18;9.27;;;9.90;68.00;;;;;;4899329;29;20040;-76
2023/02/12 17:12:21;;;;;;;15.40;8.70;;;9.90;68.20;;;;;;4930431;29;20028;-80
2023/02/12 17:14:47;;;;;;;20.48;11.43;;;9.80;68.40;;;;;;4915828;29;20028;-83
2023/02/12 17:17:13;;;;;;;16.15;8.52;;;9.70;68.50;;;;;;4911738;29;20041;-84
2023/02/12 17:19:39;;;;;;;18.80;10.85;;;9.70;68.80;;;;;;4918082;29;20032;-80
2023/02/12 17:22:07;;;;;;;18.40;9.95;;;9.70;68.80;;;;;;4912637;29;20035;-85
2023/02/12 17:24:34;;;;;;;17.30;9.05;;;9.60;69.20;;;;;;4914967;29;20034;-82
2023/02/12 17:27:00;;;;;;;15.00;8.60;;;9.60;69.30;;;;;;4917240;29;20131;-81
2023/02/12 17:29:27;;;;;;;13.82;8.70;;;9.60;69.50;;;;;;4918950;29;20032;-82
2023/02/12 17:31:54;;;;;;;16.23;9.77;;;9.50;69.60;;;;;;4913405;29;20048;-81
2023/02/12 17:34:21;;;;;;;21.35;11.27;;;9.40;69.80;;;;;;4914793;29;20024;-81
2023/02/12 17:37:11;;;;;;;17.10;9.27;;;9.40;69.90;;;;;;4915045;29;20856;-82
2023/02/12 17:39:37;;;;;;;17.15;11.18;;;9.30;69.90;;;;;;4915415;29;20055;-81
2023/02/12 17:42:05;;;;;;;22.35;12.63;;;9.30;69.90;;;;;;4918352;29;20073;-81
2023/02/12 17:44:30;;;;;;;20.65;12.20;;;9.20;70.00;;;;;;4918621;29;20400;-81
2023/02/12 17:46:57;;;;;;;18.48;11.85;;;9.10;70.10;;;;;;4917047;29;20036;-81
2023/02/12 17:49:23;;;;;;;23.42;12.88;;;9.10;70.30;;;;;;4919113;29;20107;-82
2023/02/12 17:51:49;;;;;;;24.63;13.70;;;9.00;70.40;;;;;;4903956;29;20040;-82
2023/02/12 17:54:16;;;;;;;25.35;13.13;;;9.00;70.60;;;;;;4900490;29;20039;-81
2023/02/12 17:56:42;;;;;;;24.02;13.48;;;8.90;70.60;;;;;;4918078;29;20036;-81
2023/02/12 21:05:35;;;;;;;;;;;;;;;;;;;;;
2023/02/12 21:11:40;;;;;;;16.75;11.05;;;6.90;77.30;;;;;;5934701;24;20447;-86
2023/02/12 21:15:33;;;;;;;19.95;11.05;;;6.80;77.30;;;;;;5983088;24;20043;-83
2023/02/12 21:18:10;;;;;;;25.40;12.60;;;6.80;77.30;;;;;;5981082;24;20016;-82
2023/02/12 21:28:24;;;;;;;21.48;11.18;;;6.80;77.10;;;;;;5744346;24;20093;-82
2023/02/12 21:43:05;;;;;;;21.60;11.65;;;6.80;77.10;;;;;;5757481;24;20048;-84
2023/02/12 22:18:26;;;;;;;30.02;15.18;;;6.50;78.20;;;;;;5740016;25;20401;-81
